Terminal Aerodrome Forecast
Issued by NWS Sterling, VA

Home | Current Version | Previous Version | Text Only | Print | Product List | Glossary On
Versions: 1 2 3 4 5 6 7 8 9 10 11 12 13 14 15 16 17 18
000
FTUS41 KLWX 301729
TAFCHO
TAF
KCHO 301729Z 3018/3118 19009KT P6SM FEW050 SCT250
     FM310300 VRB03KT P6SM SCT050
     FM311000 19004KT 5SM BR SCT200
     FM311300 20005KT P6SM SCT250
     FM311600 20005KT P6SM SCT050=

USA.gov is the U.S. government's official web portal to all federal, state and local government web resources and services.